Emblem, WY (82422)

10:37 PM MDT on July 25, 2016 (GMT -0600)
South Big Horn County | | Change Station

Elev 3934 ft 44.52 °N, 108.08 °W | Updated 44 minutes ago

Clear
Clear
84 °F
Feels Like 84 °F
N
0
Wind Variable Wind from North

Today
High -- | Low -- °F
--% Chance of Precip.
Yesterday
High -- | Low -- °F
Precip. -- in
Pressure 29.82 in
Visibility 10.0 miles
Clouds Clear
Dew Point 30 °F
Humidity 14%
Rainfall 0.00 in
Snow Depth Not available.
5:53 AM 8:46 PM
Waning Gibbous, 59% visible
METAR KGEY 260353Z AUTO 00000KT 10SM CLR 29/M01 A2996 RMK AO2 SLP098 T02891011
Pressure 29.82 in
Visibility 10.0 miles
Clouds Clear
Dew Point 30 °F
Humidity 14%
Rainfall 0.00 in
Snow Depth Not available.
5:53 AM 8:46 PM
Waning Gibbous, 59% visible
METAR KGEY 260353Z AUTO 00000KT 10SM CLR 29/M01 A2996 RMK AO2 SLP098 T02891011

10-Day Weather Forecast

Almanac

Astronomy

Jul. 25, 2016 Rise Set
Actual Time
Civil Twilight
Nautical Twilight
Astronomical Twilight
Moon
Length of Visible Light
Length of Day
Tomorrow will be .
, % of the Moon is Illuminated

Today's Extremes

State Highs State Lows

Community

WunderPhotos

Upload Photos

1,927,534 photos uploaded!

WunderBlog® & News

Nearby

Air Quality

  Air Quality AQ Index Pollutant
Not available.

Snow Depth

Station Depth Elevation

Earthquake Activity

City Distance Mag. Time & Date
Minimum magnitude displayed is 2.5.

Coastal Water Temperatures

Place Temperature

Stations

Nearby Weather Stations

Station Location Temp. Windchill Dew Point Humidity Wind Precip. Elev Updated Type
                   

Watches & Warnings

There are currently no watches in effect.